ESCO2: Skeleton Creek at Enid, OK

Data processed at Sun Sep 23 2018 23:02


All information presented herein is the property of the government of the United States of America and may be revised or deleted at any time without prior notice.
Dissemination of this information without the expressed written consent of the Public Affairs Office, Tulsa District U.S. Army Corps of Engineers is strictly prohibited.
These data are gathered electronically and, as presented, have not undergone any form of quality control. These data are not guaranteed to be valid or correct.
Go to home page.
Go to station list.
Go to home page.

Downstream station:


Previous Day
Next Day
Current Day
    
SHEF ID:       ESCO2     Skeleton Creek at Enid, OK
STATION TYPE:  

               PRECIP     STAGE  RIV-FLOW  WTR-TEMP   CONDUCT  BAT-LOAD
                   in        ft       cfs         F   umho/cm      volt
              Ccp-Rev   Ccp-Rev   Ccp-Rev   Ccp-Rev   Ccp-Rev   Ccp-Rev
(US/Central)
09/23 00:00      0.00      2.58         3     68.45       880     13.21
09/23 01:00      0.00      2.58         3     67.50       878     13.21
09/23 02:00      0.00      2.58         3     66.72       874     13.13
09/23 03:00      0.00      2.57         3     66.56       869     13.13
09/23 04:00      0.00      2.57         3     66.60       867     13.05
09/23 05:00      0.00      2.57         3     66.56       867     13.13
09/23 06:00      0.00      2.57         3     66.47       866     13.05
09/23 07:00      0.00      2.59         3     66.38       866     13.05
09/23 08:00      0.00      2.57         3     66.33       867     13.05
09/23 09:00      0.00      2.57         3     66.40       867     13.05
09/23 10:00      0.00      2.57         3     66.88       865     13.05
09/23 11:00      0.00      2.56         3     67.68       864     13.13
09/23 12:00      0.00      2.57         3     69.30       864     13.21
09/23 13:00      0.00      2.56         3     71.26       863     13.37
09/23 14:00      0.00      2.56         3     73.74       860     13.44
09/23 15:00      0.00      2.60         4     78.64       861     13.76
09/23 16:00      0.00      2.65         5     79.84       865     13.76
09/23 17:00      0.00      2.54         3     80.91       874     13.68
09/23 18:00      0.00      2.52         2     78.73       879     13.53
09/23 19:00      0.00      2.54         3     74.44       879     13.37
09/23 20:00      0.00      2.55         3     71.92       880     13.29
09/23 21:00      0.00      2.56         3     70.68       883     13.29
09/23 22:00      0.00      2.55         3     70.07       886     13.21
09/23 23:00      0.00      2.56         3     69.85       892     13.21